sensor_id;sensor_type;location;lat;lon;timestamp;temperature;humidity
20446;DHT22;10382;49.140;9.234;2023-10-31T00:01:12;13.80;99.90
20446;DHT22;10382;49.140;9.234;2023-10-31T00:03:38;13.80;99.90
20446;DHT22;10382;49.140;9.234;2023-10-31T00:06:09;13.80;99.90
20446;DHT22;10382;49.140;9.234;2023-10-31T00:08:36;13.90;99.90
20446;DHT22;10382;49.140;9.234;2023-10-31T00:11:03;13.90;99.90
20446;DHT22;10382;49.140;9.234;2023-10-31T00:13:30;13.90;99.90
20446;DHT22;10382;49.140;9.234;2023-10-31T00:15:57;13.90;99.90
20446;DHT22;10382;49.140;9.234;2023-10-31T00:18:24;13.90;99.90
20446;DHT22;10382;49.140;9.234;2023-10-31T00:20:50;13.90;99.90
20446;DHT22;10382;49.140;9.234;2023-10-31T00:23:19;13.80;99.90
20446;DHT22;10382;49.140;9.234;2023-10-31T00:25:45;13.80;99.90
20446;DHT22;10382;49.140;9.234;2023-10-31T00:28:12;13.80;99.90
20446;DHT22;10382;49.140;9.234;2023-10-31T00:30:39;13.60;99.90
20446;DHT22;10382;49.140;9.234;2023-10-31T00:33:06;13.40;99.90
20446;DHT22;10382;49.140;9.234;2023-10-31T00:35:33;13.30;99.90
20446;DHT22;10382;49.140;9.234;2023-10-31T00:38:00;13.10;99.90
20446;DHT22;10382;49.140;9.234;2023-10-31T00:40:28;13.10;99.90
20446;DHT22;10382;49.140;9.234;2023-10-31T00:42:55;12.90;99.90
20446;DHT22;10382;49.140;9.234;2023-10-31T00:45:24;12.70;99.90
20446;DHT22;10382;49.140;9.234;2023-10-31T00:47:50;12.60;99.90
20446;DHT22;10382;49.140;9.234;2023-10-31T00:50:17;12.60;99.90
20446;DHT22;10382;49.140;9.234;2023-10-31T00:52:44;12.70;99.90
20446;DHT22;10382;49.140;9.234;2023-10-31T00:55:11;12.80;99.90
20446;DHT22;10382;49.140;9.234;2023-10-31T00:57:39;12.90;99.90
20446;DHT22;10382;49.140;9.234;2023-10-31T01:00:07;12.90;99.90
20446;DHT22;10382;49.140;9.234;2023-10-31T01:02:35;12.90;99.90
20446;DHT22;10382;49.140;9.234;2023-10-31T01:05:02;12.90;99.90
20446;DHT22;10382;49.140;9.234;2023-10-31T01:07:29;12.90;99.90
20446;DHT22;10382;49.140;9.234;2023-10-31T01:09:55;12.90;99.90
20446;DHT22;10382;49.140;9.234;2023-10-31T01:12:22;12.90;99.90
20446;DHT22;10382;49.140;9.234;2023-10-31T01:14:50;12.70;99.90
20446;DHT22;10382;49.140;9.234;2023-10-31T01:17:17;12.60;99.90
20446;DHT22;10382;49.140;9.234;2023-10-31T01:19:44;12.50;99.90
20446;DHT22;10382;49.140;9.234;2023-10-31T01:22:11;12.40;99.90
20446;DHT22;10382;49.140;9.234;2023-10-31T01:24:38;12.40;99.90
20446;DHT22;10382;49.140;9.234;2023-10-31T01:27:05;12.40;99.90
20446;DHT22;10382;49.140;9.234;2023-10-31T01:29:32;12.40;99.90
20446;DHT22;10382;49.140;9.234;2023-10-31T01:32:00;12.40;99.90
20446;DHT22;10382;49.140;9.234;2023-10-31T01:34:27;12.30;99.90
20446;DHT22;10382;49.140;9.234;2023-10-31T01:36:53;12.30;99.90
20446;DHT22;10382;49.140;9.234;2023-10-31T01:39:20;12.30;99.90
20446;DHT22;10382;49.140;9.234;2023-10-31T01:41:47;12.30;99.90
20446;DHT22;10382;49.140;9.234;2023-10-31T01:44:14;12.40;99.90
20446;DHT22;10382;49.140;9.234;2023-10-31T01:46:41;12.40;99.90
20446;DHT22;10382;49.140;9.234;2023-10-31T01:49:09;12.50;99.90
20446;DHT22;10382;49.140;9.234;2023-10-31T01:51:36;12.50;99.90
20446;DHT22;10382;49.140;9.234;2023-10-31T01:54:03;12.50;99.90
20446;DHT22;10382;49.140;9.234;2023-10-31T01:56:31;12.40;99.90
20446;DHT22;10382;49.140;9.234;2023-10-31T01:58:58;12.40;99.90
20446;DHT22;10382;49.140;9.234;2023-10-31T02:01:24;12.40;99.90
20446;DHT22;10382;49.140;9.234;2023-10-31T02:03:51;12.50;99.90
20446;DHT22;10382;49.140;9.234;2023-10-31T02:06:19;12.60;99.90
20446;DHT22;10382;49.140;9.234;2023-10-31T02:08:47;12.60;99.90
20446;DHT22;10382;49.140;9.234;2023-10-31T02:11:14;12.50;99.90
20446;DHT22;10382;49.140;9.234;2023-10-31T02:13:41;12.50;99.90
20446;DHT22;10382;49.140;9.234;2023-10-31T02:16:08;12.50;99.90
20446;DHT22;10382;49.140;9.234;2023-10-31T02:18:35;12.60;99.90
20446;DHT22;10382;49.140;9.234;2023-10-31T02:21:02;12.60;99.90
20446;DHT22;10382;49.140;9.234;2023-10-31T02:23:30;12.60;99.90
20446;DHT22;10382;49.140;9.234;2023-10-31T02:25:57;12.60;99.90
20446;DHT22;10382;49.140;9.234;2023-10-31T02:28:24;12.60;99.90
20446;DHT22;10382;49.140;9.234;2023-10-31T02:30:53;12.60;99.90
20446;DHT22;10382;49.140;9.234;2023-10-31T02:33:20;12.60;99.90
20446;DHT22;10382;49.140;9.234;2023-10-31T02:35:47;12.60;99.90
20446;DHT22;10382;49.140;9.234;2023-10-31T02:38:13;12.50;99.90
20446;DHT22;10382;49.140;9.234;2023-10-31T02:40:42;12.50;99.90
20446;DHT22;10382;49.140;9.234;2023-10-31T02:43:08;12.60;99.90
20446;DHT22;10382;49.140;9.234;2023-10-31T02:45:35;12.60;99.90
20446;DHT22;10382;49.140;9.234;2023-10-31T02:48:02;12.50;99.90
20446;DHT22;10382;49.140;9.234;2023-10-31T02:50:29;12.50;99.90
20446;DHT22;10382;49.140;9.234;2023-10-31T02:52:56;12.40;99.90
20446;DHT22;10382;49.140;9.234;2023-10-31T02:55:23;12.40;99.90
20446;DHT22;10382;49.140;9.234;2023-10-31T02:57:51;12.40;99.90
20446;DHT22;10382;49.140;9.234;2023-10-31T03:00:18;12.40;99.90
20446;DHT22;10382;49.140;9.234;2023-10-31T03:02:45;12.30;99.90
20446;DHT22;10382;49.140;9.234;2023-10-31T03:05:12;12.30;99.90
20446;DHT22;10382;49.140;9.234;2023-10-31T03:07:39;12.30;99.90
20446;DHT22;10382;49.140;9.234;2023-10-31T03:10:07;12.40;99.90
20446;DHT22;10382;49.140;9.234;2023-10-31T03:12:34;12.40;99.90
20446;DHT22;10382;49.140;9.234;2023-10-31T03:15:02;12.40;99.90
20446;DHT22;10382;49.140;9.234;2023-10-31T03:17:29;12.40;99.90
20446;DHT22;10382;49.140;9.234;2023-10-31T03:19:56;12.40;99.90
20446;DHT22;10382;49.140;9.234;2023-10-31T03:22:23;12.40;99.90
20446;DHT22;10382;49.140;9.234;2023-10-31T03:24:49;12.40;99.90
20446;DHT22;10382;49.140;9.234;2023-10-31T03:27:16;12.30;99.90
20446;DHT22;10382;49.140;9.234;2023-10-31T03:29:44;12.20;99.90
20446;DHT22;10382;49.140;9.234;2023-10-31T03:32:14;12.10;99.90
20446;DHT22;10382;49.140;9.234;2023-10-31T03:34:41;12.10;99.90
20446;DHT22;10382;49.140;9.234;2023-10-31T03:37:08;12.10;99.90
20446;DHT22;10382;49.140;9.234;2023-10-31T03:39:34;12.10;99.90
20446;DHT22;10382;49.140;9.234;2023-10-31T03:42:01;12.10;99.90
20446;DHT22;10382;49.140;9.234;2023-10-31T03:44:28;12.20;99.90
20446;DHT22;10382;49.140;9.234;2023-10-31T03:46:55;12.20;99.90
20446;DHT22;10382;49.140;9.234;2023-10-31T03:49:23;12.20;99.90
20446;DHT22;10382;49.140;9.234;2023-10-31T03:51:50;12.30;99.90
20446;DHT22;10382;49.140;9.234;2023-10-31T03:54:17;12.30;99.90
20446;DHT22;10382;49.140;9.234;2023-10-31T03:56:44;12.30;99.90
20446;DHT22;10382;49.140;9.234;2023-10-31T03:59:11;12.30;99.90
20446;DHT22;10382;49.140;9.234;2023-10-31T04:01:37;12.30;99.90
20446;DHT22;10382;49.140;9.234;2023-10-31T04:04:05;12.40;99.90
20446;DHT22;10382;49.140;9.234;2023-10-31T04:06:33;12.30;99.90
20446;DHT22;10382;49.140;9.234;2023-10-31T04:09:00;12.30;99.90
20446;DHT22;10382;49.140;9.234;2023-10-31T04:11:27;12.40;99.90
20446;DHT22;10382;49.140;9.234;2023-10-31T04:13:54;12.40;99.90
20446;DHT22;10382;49.140;9.234;2023-10-31T04:16:21;12.40;99.90
20446;DHT22;10382;49.140;9.234;2023-10-31T04:18:48;12.50;99.90
20446;DHT22;10382;49.140;9.234;2023-10-31T04:21:14;12.60;99.90
20446;DHT22;10382;49.140;9.234;2023-10-31T04:23:43;12.60;99.90
20446;DHT22;10382;49.140;9.234;2023-10-31T04:26:09;12.60;99.90
20446;DHT22;10382;49.140;9.234;2023-10-31T04:28:36;12.50;99.90
20446;DHT22;10382;49.140;9.234;2023-10-31T04:31:03;12.60;99.90
20446;DHT22;10382;49.140;9.234;2023-10-31T04:33:30;12.60;99.90
20446;DHT22;10382;49.140;9.234;2023-10-31T04:35:57;12.60;99.90
20446;DHT22;10382;49.140;9.234;2023-10-31T04:38:26;12.70;99.90
20446;DHT22;10382;49.140;9.234;2023-10-31T04:40:54;12.70;99.90
20446;DHT22;10382;49.140;9.234;2023-10-31T04:43:21;12.80;99.90
20446;DHT22;10382;49.140;9.234;2023-10-31T04:45:48;12.70;99.90
20446;DHT22;10382;49.140;9.234;2023-10-31T04:48:14;12.60;99.90
20446;DHT22;10382;49.140;9.234;2023-10-31T04:50:41;12.50;99.90
20446;DHT22;10382;49.140;9.234;2023-10-31T04:53:08;12.50;99.90
20446;DHT22;10382;49.140;9.234;2023-10-31T04:55:35;12.50;99.90
20446;DHT22;10382;49.140;9.234;2023-10-31T04:58:03;12.60;99.90
20446;DHT22;10382;49.140;9.234;2023-10-31T05:00:30;12.60;99.90
20446;DHT22;10382;49.140;9.234;2023-10-31T05:02:57;12.60;99.90
20446;DHT22;10382;49.140;9.234;2023-10-31T05:05:25;12.60;99.90
20446;DHT22;10382;49.140;9.234;2023-10-31T05:07:52;12.50;99.90
20446;DHT22;10382;49.140;9.234;2023-10-31T05:10:19;12.50;99.90
20446;DHT22;10382;49.140;9.234;2023-10-31T05:12:45;12.50;99.90
20446;DHT22;10382;49.140;9.234;2023-10-31T05:15:14;12.40;99.90
20446;DHT22;10382;49.140;9.234;2023-10-31T05:17:41;12.50;99.90
20446;DHT22;10382;49.140;9.234;2023-10-31T05:20:08;12.50;99.90
20446;DHT22;10382;49.140;9.234;2023-10-31T05:22:36;12.50;99.90
20446;DHT22;10382;49.140;9.234;2023-10-31T05:25:04;12.50;99.90
20446;DHT22;10382;49.140;9.234;2023-10-31T05:27:31;12.40;99.90
20446;DHT22;10382;49.140;9.234;2023-10-31T05:29:58;12.40;99.90
20446;DHT22;10382;49.140;9.234;2023-10-31T05:32:26;12.40;99.90
20446;DHT22;10382;49.140;9.234;2023-10-31T05:34:53;12.30;99.90
20446;DHT22;10382;49.140;9.234;2023-10-31T05:37:20;12.30;99.90
20446;DHT22;10382;49.140;9.234;2023-10-31T05:39:47;12.20;99.90
20446;DHT22;10382;49.140;9.234;2023-10-31T05:42:14;12.30;99.90
20446;DHT22;10382;49.140;9.234;2023-10-31T05:44:41;12.30;99.90
20446;DHT22;10382;49.140;9.234;2023-10-31T05:47:07;12.40;99.90
20446;DHT22;10382;49.140;9.234;2023-10-31T05:49:36;12.40;99.90
20446;DHT22;10382;49.140;9.234;2023-10-31T05:52:03;12.30;99.90
20446;DHT22;10382;49.140;9.234;2023-10-31T05:54:30;12.30;99.90
20446;DHT22;10382;49.140;9.234;2023-10-31T05:56:57;12.30;99.90
20446;DHT22;10382;49.140;9.234;2023-10-31T05:59:23;12.40;99.90
20446;DHT22;10382;49.140;9.234;2023-10-31T06:01:50;12.40;99.90
20446;DHT22;10382;49.140;9.234;2023-10-31T06:04:17;12.40;99.90
20446;DHT22;10382;49.140;9.234;2023-10-31T06:06:46;12.40;99.90
20446;DHT22;10382;49.140;9.234;2023-10-31T06:09:12;12.50;99.90
20446;DHT22;10382;49.140;9.234;2023-10-31T06:11:40;12.50;99.90
20446;DHT22;10382;49.140;9.234;2023-10-31T06:14:08;12.60;99.90
20446;DHT22;10382;49.140;9.234;2023-10-31T06:16:39;12.60;99.90
20446;DHT22;10382;49.140;9.234;2023-10-31T06:19:06;12.50;99.90
20446;DHT22;10382;49.140;9.234;2023-10-31T06:21:33;12.60;99.90
20446;DHT22;10382;49.140;9.234;2023-10-31T06:24:02;12.60;99.90
20446;DHT22;10382;49.140;9.234;2023-10-31T06:26:29;12.50;99.90
20446;DHT22;10382;49.140;9.234;2023-10-31T06:28:56;12.40;99.90
20446;DHT22;10382;49.140;9.234;2023-10-31T06:31:23;12.20;99.90
20446;DHT22;10382;49.140;9.234;2023-10-31T06:33:50;12.10;99.90
20446;DHT22;10382;49.140;9.234;2023-10-31T06:36:16;12.10;99.90
20446;DHT22;10382;49.140;9.234;2023-10-31T06:38:43;12.10;99.90
20446;DHT22;10382;49.140;9.234;2023-10-31T06:41:11;12.20;99.90
20446;DHT22;10382;49.140;9.234;2023-10-31T06:43:38;12.30;99.90
20446;DHT22;10382;49.140;9.234;2023-10-31T06:46:05;12.30;99.90
20446;DHT22;10382;49.140;9.234;2023-10-31T06:48:32;12.30;99.90
20446;DHT22;10382;49.140;9.234;2023-10-31T06:50:59;12.30;99.90
20446;DHT22;10382;49.140;9.234;2023-10-31T06:53:26;12.30;99.90
20446;DHT22;10382;49.140;9.234;2023-10-31T06:55:53;12.30;99.90
20446;DHT22;10382;49.140;9.234;2023-10-31T06:58:21;12.40;99.90
20446;DHT22;10382;49.140;9.234;2023-10-31T07:00:48;12.40;99.90
20446;DHT22;10382;49.140;9.234;2023-10-31T07:03:15;12.40;99.90
20446;DHT22;10382;49.140;9.234;2023-10-31T07:05:41;12.50;99.90
20446;DHT22;10382;49.140;9.234;2023-10-31T07:08:08;12.50;99.90
20446;DHT22;10382;49.140;9.234;2023-10-31T07:10:35;12.60;99.90
20446;DHT22;10382;49.140;9.234;2023-10-31T07:13:02;12.60;99.90
20446;DHT22;10382;49.140;9.234;2023-10-31T07:15:31;12.50;99.90
20446;DHT22;10382;49.140;9.234;2023-10-31T07:17:58;12.50;99.90
20446;DHT22;10382;49.140;9.234;2023-10-31T07:20:25;12.40;99.90
20446;DHT22;10382;49.140;9.234;2023-10-31T07:22:51;12.40;99.90
20446;DHT22;10382;49.140;9.234;2023-10-31T07:25:17;12.50;99.90
20446;DHT22;10382;49.140;9.234;2023-10-31T07:27:44;12.50;99.90
20446;DHT22;10382;49.140;9.234;2023-10-31T07:30:11;12.50;99.90
20446;DHT22;10382;49.140;9.234;2023-10-31T07:32:40;12.50;99.90
20446;DHT22;10382;49.140;9.234;2023-10-31T07:35:07;12.60;99.90
20446;DHT22;10382;49.140;9.234;2023-10-31T07:37:34;12.70;99.90
20446;DHT22;10382;49.140;9.234;2023-10-31T07:40:01;12.60;99.90
20446;DHT22;10382;49.140;9.234;2023-10-31T07:42:29;12.50;99.90
20446;DHT22;10382;49.140;9.234;2023-10-31T07:44:56;12.50;99.90
20446;DHT22;10382;49.140;9.234;2023-10-31T07:47:23;12.40;99.90
20446;DHT22;10382;49.140;9.234;2023-10-31T07:49:51;12.50;99.90
20446;DHT22;10382;49.140;9.234;2023-10-31T07:52:19;12.40;99.90
20446;DHT22;10382;49.140;9.234;2023-10-31T07:54:45;12.40;99.90
20446;DHT22;10382;49.140;9.234;2023-10-31T07:57:12;12.30;99.90
20446;DHT22;10382;49.140;9.234;2023-10-31T07:59:39;12.30;99.90
20446;DHT22;10382;49.140;9.234;2023-10-31T08:02:06;12.30;99.90
20446;DHT22;10382;49.140;9.234;2023-10-31T08:04:33;12.40;99.90
20446;DHT22;10382;49.140;9.234;2023-10-31T08:07:01;12.50;99.90
20446;DHT22;10382;49.140;9.234;2023-10-31T08:09:28;12.50;99.90
20446;DHT22;10382;49.140;9.234;2023-10-31T08:11:55;12.50;99.90
20446;DHT22;10382;49.140;9.234;2023-10-31T08:14:21;12.60;99.90
20446;DHT22;10382;49.140;9.234;2023-10-31T08:16:48;12.70;99.90
20446;DHT22;10382;49.140;9.234;2023-10-31T08:19:15;12.70;99.90
20446;DHT22;10382;49.140;9.234;2023-10-31T08:21:42;12.60;99.90
20446;DHT22;10382;49.140;9.234;2023-10-31T08:24:10;12.60;99.90
20446;DHT22;10382;49.140;9.234;2023-10-31T08:26:38;12.70;99.90
20446;DHT22;10382;49.140;9.234;2023-10-31T08:29:05;12.60;99.90
20446;DHT22;10382;49.140;9.234;2023-10-31T08:31:32;12.60;99.90
20446;DHT22;10382;49.140;9.234;2023-10-31T08:33:59;12.50;99.90
20446;DHT22;10382;49.140;9.234;2023-10-31T08:36:26;12.70;99.90
20446;DHT22;10382;49.140;9.234;2023-10-31T08:38:53;12.80;99.90
20446;DHT22;10382;49.140;9.234;2023-10-31T08:41:22;12.80;99.90
20446;DHT22;10382;49.140;9.234;2023-10-31T08:43:48;12.90;99.90
20446;DHT22;10382;49.140;9.234;2023-10-31T08:46:15;13.10;99.90
20446;DHT22;10382;49.140;9.234;2023-10-31T08:48:42;13.20;99.90
20446;DHT22;10382;49.140;9.234;2023-10-31T08:51:08;13.30;99.90
20446;DHT22;10382;49.140;9.234;2023-10-31T08:53:35;13.30;99.90
20446;DHT22;10382;49.140;9.234;2023-10-31T08:56:01;13.30;99.90
20446;DHT22;10382;49.140;9.234;2023-10-31T08:58:29;13.30;99.90
20446;DHT22;10382;49.140;9.234;2023-10-31T09:00:56;13.40;99.90
20446;DHT22;10382;49.140;9.234;2023-10-31T09:03:23;13.50;99.90
20446;DHT22;10382;49.140;9.234;2023-10-31T09:05:50;13.50;99.90
20446;DHT22;10382;49.140;9.234;2023-10-31T09:08:17;13.30;99.90
20446;DHT22;10382;49.140;9.234;2023-10-31T09:10:44;13.40;99.90
20446;DHT22;10382;49.140;9.234;2023-10-31T09:13:12;13.40;99.90
20446;DHT22;10382;49.140;9.234;2023-10-31T09:15:41;13.60;99.90
20446;DHT22;10382;49.140;9.234;2023-10-31T09:18:07;13.80;99.90
20446;DHT22;10382;49.140;9.234;2023-10-31T09:20:34;13.80;99.90
20446;DHT22;10382;49.140;9.234;2023-10-31T09:23:01;14.00;99.90
20446;DHT22;10382;49.140;9.234;2023-10-31T09:25:28;14.00;99.90
20446;DHT22;10382;49.140;9.234;2023-10-31T09:27:55;14.00;99.90
20446;DHT22;10382;49.140;9.234;2023-10-31T09:30:24;13.80;99.90
20446;DHT22;10382;49.140;9.234;2023-10-31T09:32:52;13.70;99.90
20446;DHT22;10382;49.140;9.234;2023-10-31T09:35:19;13.70;99.90
20446;DHT22;10382;49.140;9.234;2023-10-31T09:37:46;13.80;99.90
20446;DHT22;10382;49.140;9.234;2023-10-31T09:40:14;14.00;99.90
20446;DHT22;10382;49.140;9.234;2023-10-31T09:42:41;13.90;99.90
20446;DHT22;10382;49.140;9.234;2023-10-31T09:45:08;14.10;99.90
20446;DHT22;10382;49.140;9.234;2023-10-31T09:47:36;14.30;99.90
20446;DHT22;10382;49.140;9.234;2023-10-31T09:50:04;14.50;99.90
20446;DHT22;10382;49.140;9.234;2023-10-31T09:52:32;14.90;99.90
20446;DHT22;10382;49.140;9.234;2023-10-31T09:55:01;15.10;99.90
20446;DHT22;10382;49.140;9.234;2023-10-31T09:57:28;15.30;99.90
20446;DHT22;10382;49.140;9.234;2023-10-31T09:59:55;15.10;99.90
20446;DHT22;10382;49.140;9.234;2023-10-31T10:02:22;15.10;99.90
20446;DHT22;10382;49.140;9.234;2023-10-31T10:04:49;14.80;99.90
20446;DHT22;10382;49.140;9.234;2023-10-31T10:07:19;14.90;99.90
20446;DHT22;10382;49.140;9.234;2023-10-31T10:09:47;14.80;99.90
20446;DHT22;10382;49.140;9.234;2023-10-31T10:12:15;14.90;99.90
20446;DHT22;10382;49.140;9.234;2023-10-31T10:14:44;14.80;99.90
20446;DHT22;10382;49.140;9.234;2023-10-31T10:17:15;14.90;99.90
20446;DHT22;10382;49.140;9.234;2023-10-31T10:19:42;14.90;99.90
20446;DHT22;10382;49.140;9.234;2023-10-31T10:22:09;14.90;99.90
20446;DHT22;10382;49.140;9.234;2023-10-31T10:24:41;14.80;99.90
20446;DHT22;10382;49.140;9.234;2023-10-31T10:27:08;15.00;99.90
20446;DHT22;10382;49.140;9.234;2023-10-31T10:29:35;15.00;99.90
20446;DHT22;10382;49.140;9.234;2023-10-31T10:32:05;14.90;99.90
20446;DHT22;10382;49.140;9.234;2023-10-31T10:34:34;14.90;99.90
20446;DHT22;10382;49.140;9.234;2023-10-31T10:37:05;14.90;99.90
20446;DHT22;10382;49.140;9.234;2023-10-31T10:39:33;15.00;99.90
20446;DHT22;10382;49.140;9.234;2023-10-31T10:42:06;15.20;99.90
20446;DHT22;10382;49.140;9.234;2023-10-31T10:44:35;15.30;99.90
20446;DHT22;10382;49.140;9.234;2023-10-31T10:47:05;15.20;99.90
20446;DHT22;10382;49.140;9.234;2023-10-31T10:49:36;15.20;99.90
20446;DHT22;10382;49.140;9.234;2023-10-31T10:52:14;15.60;99.90
20446;DHT22;10382;49.140;9.234;2023-10-31T10:54:48;15.80;99.90
20446;DHT22;10382;49.140;9.234;2023-10-31T10:57:27;15.60;99.90
20446;DHT22;10382;49.140;9.234;2023-10-31T11:00:01;15.70;99.90
20446;DHT22;10382;49.140;9.234;2023-10-31T11:02:29;16.00;99.90
20446;DHT22;10382;49.140;9.234;2023-10-31T11:04:56;16.30;99.90
20446;DHT22;10382;49.140;9.234;2023-10-31T11:07:25;16.20;99.90
20446;DHT22;10382;49.140;9.234;2023-10-31T11:09:55;16.30;99.90
20446;DHT22;10382;49.140;9.234;2023-10-31T11:12:23;16.60;99.90
20446;DHT22;10382;49.140;9.234;2023-10-31T11:14:51;16.20;99.90
20446;DHT22;10382;49.140;9.234;2023-10-31T11:17:24;15.90;99.90
20446;DHT22;10382;49.140;9.234;2023-10-31T11:19:51;15.50;99.90
20446;DHT22;10382;49.140;9.234;2023-10-31T11:22:19;15.10;99.90
20446;DHT22;10382;49.140;9.234;2023-10-31T11:24:46;14.90;99.90
20446;DHT22;10382;49.140;9.234;2023-10-31T11:27:13;14.60;99.90
20446;DHT22;10382;49.140;9.234;2023-10-31T11:29:41;14.70;99.90
20446;DHT22;10382;49.140;9.234;2023-10-31T11:32:09;14.80;99.90
20446;DHT22;10382;49.140;9.234;2023-10-31T11:34:38;15.00;99.90
20446;DHT22;10382;49.140;9.234;2023-10-31T11:37:24;15.00;99.90
20446;DHT22;10382;49.140;9.234;2023-10-31T11:40:17;15.20;99.90
20446;DHT22;10382;49.140;9.234;2023-10-31T11:42:47;15.40;99.90
20446;DHT22;10382;49.140;9.234;2023-10-31T11:45:26;15.50;99.90
20446;DHT22;10382;49.140;9.234;2023-10-31T11:47:54;15.70;99.90
20446;DHT22;10382;49.140;9.234;2023-10-31T11:50:21;15.90;99.90
20446;DHT22;10382;49.140;9.234;2023-10-31T11:52:59;16.10;99.90
20446;DHT22;10382;49.140;9.234;2023-10-31T11:55:26;16.10;99.90
20446;DHT22;10382;49.140;9.234;2023-10-31T11:57:53;15.90;99.90
20446;DHT22;10382;49.140;9.234;2023-10-31T12:00:21;15.50;99.90
20446;DHT22;10382;49.140;9.234;2023-10-31T12:03:00;15.40;99.90
20446;DHT22;10382;49.140;9.234;2023-10-31T12:05:27;15.40;99.90
20446;DHT22;10382;49.140;9.234;2023-10-31T12:07:56;15.40;99.90
20446;DHT22;10382;49.140;9.234;2023-10-31T12:10:27;15.30;99.90
20446;DHT22;10382;49.140;9.234;2023-10-31T12:12:57;15.20;99.90
20446;DHT22;10382;49.140;9.234;2023-10-31T12:15:25;15.20;99.90
20446;DHT22;10382;49.140;9.234;2023-10-31T12:17:59;15.30;99.90
20446;DHT22;10382;49.140;9.234;2023-10-31T12:20:27;15.30;99.90
20446;DHT22;10382;49.140;9.234;2023-10-31T12:23:03;15.50;99.90
20446;DHT22;10382;49.140;9.234;2023-10-31T12:25:31;15.50;99.90
20446;DHT22;10382;49.140;9.234;2023-10-31T12:28:01;15.40;99.90
20446;DHT22;10382;49.140;9.234;2023-10-31T12:30:28;15.30;99.90
20446;DHT22;10382;49.140;9.234;2023-10-31T12:32:56;15.20;99.90
20446;DHT22;10382;49.140;9.234;2023-10-31T12:35:26;15.20;99.90
20446;DHT22;10382;49.140;9.234;2023-10-31T12:37:54;15.30;99.90
20446;DHT22;10382;49.140;9.234;2023-10-31T12:40:22;15.20;99.90
20446;DHT22;10382;49.140;9.234;2023-10-31T12:42:50;15.20;99.90
20446;DHT22;10382;49.140;9.234;2023-10-31T12:45:18;15.10;99.90
20446;DHT22;10382;49.140;9.234;2023-10-31T12:47:45;14.90;99.90
20446;DHT22;10382;49.140;9.234;2023-10-31T12:50:28;15.10;99.90
20446;DHT22;10382;49.140;9.234;2023-10-31T12:52:55;15.10;99.90
20446;DHT22;10382;49.140;9.234;2023-10-31T12:55:25;15.20;99.90
20446;DHT22;10382;49.140;9.234;2023-10-31T12:57:53;15.60;99.90
20446;DHT22;10382;49.140;9.234;2023-10-31T13:00:21;16.00;99.90
20446;DHT22;10382;49.140;9.234;2023-10-31T13:02:51;15.90;99.90
20446;DHT22;10382;49.140;9.234;2023-10-31T13:05:19;15.90;99.90
20446;DHT22;10382;49.140;9.234;2023-10-31T13:07:50;15.90;99.90
20446;DHT22;10382;49.140;9.234;2023-10-31T13:10:18;15.80;99.90
20446;DHT22;10382;49.140;9.234;2023-10-31T13:12:45;15.60;99.90
20446;DHT22;10382;49.140;9.234;2023-10-31T13:15:13;15.80;99.90
20446;DHT22;10382;49.140;9.234;2023-10-31T13:17:40;16.10;99.90
20446;DHT22;10382;49.140;9.234;2023-10-31T13:20:10;16.20;99.90
20446;DHT22;10382;49.140;9.234;2023-10-31T13:22:39;17.10;99.90
20446;DHT22;10382;49.140;9.234;2023-10-31T13:25:09;17.50;99.90
20446;DHT22;10382;49.140;9.234;2023-10-31T13:27:37;18.50;99.90
20446;DHT22;10382;49.140;9.234;2023-10-31T13:30:06;19.50;99.90
20446;DHT22;10382;49.140;9.234;2023-10-31T13:32:33;19.40;99.90
20446;DHT22;10382;49.140;9.234;2023-10-31T13:35:01;18.90;99.90
20446;DHT22;10382;49.140;9.234;2023-10-31T13:37:30;18.30;99.90
20446;DHT22;10382;49.140;9.234;2023-10-31T13:39:57;17.60;99.90
20446;DHT22;10382;49.140;9.234;2023-10-31T13:42:25;16.90;99.90
20446;DHT22;10382;49.140;9.234;2023-10-31T13:44:53;16.30;99.90
20446;DHT22;10382;49.140;9.234;2023-10-31T13:47:20;15.90;99.90
20446;DHT22;10382;49.140;9.234;2023-10-31T13:49:47;15.60;99.90
20446;DHT22;10382;49.140;9.234;2023-10-31T13:52:17;15.40;99.90
20446;DHT22;10382;49.140;9.234;2023-10-31T13:54:44;15.40;99.90
20446;DHT22;10382;49.140;9.234;2023-10-31T13:57:12;15.30;99.90
20446;DHT22;10382;49.140;9.234;2023-10-31T13:59:41;15.20;99.90
20446;DHT22;10382;49.140;9.234;2023-10-31T14:02:09;15.20;99.90
20446;DHT22;10382;49.140;9.234;2023-10-31T14:04:36;15.20;99.90
20446;DHT22;10382;49.140;9.234;2023-10-31T14:07:04;15.50;99.90
20446;DHT22;10382;49.140;9.234;2023-10-31T14:09:32;16.20;99.90
20446;DHT22;10382;49.140;9.234;2023-10-31T14:11:59;16.80;99.90
20446;DHT22;10382;49.140;9.234;2023-10-31T14:14:27;16.90;99.90
20446;DHT22;10382;49.140;9.234;2023-10-31T14:16:56;16.70;99.90
20446;DHT22;10382;49.140;9.234;2023-10-31T14:19:24;16.40;99.90
20446;DHT22;10382;49.140;9.234;2023-10-31T14:21:51;16.00;99.90
20446;DHT22;10382;49.140;9.234;2023-10-31T14:24:18;15.80;99.90
20446;DHT22;10382;49.140;9.234;2023-10-31T14:26:45;15.70;99.90
20446;DHT22;10382;49.140;9.234;2023-10-31T14:29:12;15.80;99.90
20446;DHT22;10382;49.140;9.234;2023-10-31T14:31:40;15.80;99.90
20446;DHT22;10382;49.140;9.234;2023-10-31T14:34:08;15.90;99.90
20446;DHT22;10382;49.140;9.234;2023-10-31T14:36:35;15.80;99.90
20446;DHT22;10382;49.140;9.234;2023-10-31T14:39:02;15.60;99.90
20446;DHT22;10382;49.140;9.234;2023-10-31T14:41:30;15.40;99.90
20446;DHT22;10382;49.140;9.234;2023-10-31T14:43:59;15.30;99.90
20446;DHT22;10382;49.140;9.234;2023-10-31T14:46:27;15.20;99.90
20446;DHT22;10382;49.140;9.234;2023-10-31T14:48:54;15.20;99.90
20446;DHT22;10382;49.140;9.234;2023-10-31T14:51:22;15.20;99.90
20446;DHT22;10382;49.140;9.234;2023-10-31T14:53:49;15.20;99.90
20446;DHT22;10382;49.140;9.234;2023-10-31T14:56:16;15.20;99.90
20446;DHT22;10382;49.140;9.234;2023-10-31T14:58:43;15.20;99.90
20446;DHT22;10382;49.140;9.234;2023-10-31T15:01:10;15.10;99.90
20446;DHT22;10382;49.140;9.234;2023-10-31T15:03:37;15.00;99.90
20446;DHT22;10382;49.140;9.234;2023-10-31T15:06:04;15.00;99.90
20446;DHT22;10382;49.140;9.234;2023-10-31T15:08:34;15.00;99.90
20446;DHT22;10382;49.140;9.234;2023-10-31T15:11:00;15.00;99.90
20446;DHT22;10382;49.140;9.234;2023-10-31T15:13:27;15.00;99.90
20446;DHT22;10382;49.140;9.234;2023-10-31T15:15:54;15.00;99.90
20446;DHT22;10382;49.140;9.234;2023-10-31T15:18:21;14.90;99.90
20446;DHT22;10382;49.140;9.234;2023-10-31T15:20:48;14.80;99.90
20446;DHT22;10382;49.140;9.234;2023-10-31T15:23:15;14.80;99.90
20446;DHT22;10382;49.140;9.234;2023-10-31T15:25:43;14.80;99.90
20446;DHT22;10382;49.140;9.234;2023-10-31T15:28:10;14.70;99.90
20446;DHT22;10382;49.140;9.234;2023-10-31T15:30:37;14.70;99.90
20446;DHT22;10382;49.140;9.234;2023-10-31T15:33:04;14.50;99.90